Time;durP1;ratioP1;P1;durP2;ratioP2;P2;SDS_P1;SDS_P2;PMS_P1;PMS_P2;Temp;Humidity;BMP_temperature;BMP_pressure;BME280_temperature;BME280_humidity;BME280_pressure;Samples;Min_cycle;Max_cycle;Signal;HPM_P1;HPM_P2
2021/08/02 00:00:17;;;;;;;6.18;0.70;;;;;;;;;;5052023;28;20029;-69
2021/08/02 00:02:44;;;;;;;4.85;1.40;;;;;;;;;;5036375;28;20030;-70
2021/08/02 00:05:11;;;;;;;4.88;1.05;;;;;;;;;;5050724;28;20429;-70
2021/08/02 00:07:39;;;;;;;3.70;1.83;;;;;;;;;;5051877;28;20021;-70
2021/08/02 00:10:08;;;;;;;4.07;0.65;;;;;;;;;;5050520;28;20482;-69
2021/08/02 00:12:40;;;;;;;4.55;1.13;;;;;;;;;;5050159;28;20120;-69
2021/08/02 00:15:08;;;;;;;4.93;1.02;;;;;;;;;;5046382;28;20504;-70
2021/08/02 00:17:35;;;;;;;3.58;1.33;;;;;;;;;;5052349;28;20104;-69
2021/08/02 00:20:03;;;;;;;6.85;0.68;;;;;;;;;;5034168;28;20506;-70
2021/08/02 00:22:30;;;;;;;3.65;0.70;;;;;;;;;;5051094;28;20052;-70
2021/08/02 00:24:57;;;;;;;7.75;1.00;;;;;;;;;;5047770;28;20021;-73
2021/08/02 00:27:24;;;;;;;4.00;1.08;;;;;;;;;;5044321;28;20560;-73
2021/08/02 00:29:51;;;;;;;4.88;0.90;;;;;;;;;;5046926;28;20029;-73
2021/08/02 00:32:19;;;;;;;7.57;0.95;;;;;;;;;;5049068;28;20029;-73
2021/08/02 00:34:46;;;;;;;3.28;0.80;;;;;;;;;;5045804;28;20047;-74
2021/08/02 00:37:18;;;;;;;2.55;0.90;;;;;;;;;;5047002;28;20447;-73
2021/08/02 00:39:48;;;;;;;4.40;0.75;;;;;;;;;;5047738;28;20029;-73
2021/08/02 00:42:35;;;;;;;7.05;1.17;;;;;;;;;;5051952;28;20126;-73
2021/08/02 00:45:02;;;;;;;2.50;0.93;;;;;;;;;;5050478;28;20389;-73
2021/08/02 00:47:33;;;;;;;5.47;0.90;;;;;;;;;;5051206;28;20455;-73
2021/08/02 00:50:05;;;;;;;9.70;1.40;;;;;;;;;;5048984;28;20405;-72
2021/08/02 00:52:33;;;;;;;5.65;0.95;;;;;;;;;;5048200;28;20029;-71
2021/08/02 00:55:03;;;;;;;8.25;1.17;;;;;;;;;;5048814;28;20489;-69
2021/08/02 00:57:33;;;;;;;8.82;1.83;;;;;;;;;;5050633;28;20032;-69
2021/08/02 01:00:03;;;;;;;6.47;1.45;;;;;;;;;;5046221;28;20056;-69
2021/08/02 01:02:32;;;;;;;6.30;1.00;;;;;;;;;;5051277;28;20029;-68
2021/08/02 01:05:00;;;;;;;5.78;0.80;;;;;;;;;;5035583;28;20033;-69
2021/08/02 01:07:27;;;;;;;5.53;1.13;;;;;;;;;;5043893;28;20029;-69
2021/08/02 01:09:55;;;;;;;7.82;0.95;;;;;;;;;;5049641;28;20021;-70
2021/08/02 01:12:23;;;;;;;5.22;1.10;;;;;;;;;;5050283;28;20078;-69
2021/08/02 01:14:50;;;;;;;8.77;1.50;;;;;;;;;;5038876;28;20017;-69
2021/08/02 01:17:17;;;;;;;8.20;2.22;;;;;;;;;;5048600;28;20063;-70
2021/08/02 01:19:45;;;;;;;6.93;1.00;;;;;;;;;;5044321;28;20025;-69
2021/08/02 01:22:16;;;;;;;5.75;0.90;;;;;;;;;;5046203;28;20064;-69
2021/08/02 01:24:44;;;;;;;10.85;1.33;;;;;;;;;;5048320;28;20037;-69
2021/08/02 01:27:30;;;;;;;6.20;1.02;;;;;;;;;;5049977;28;20019;-69
2021/08/02 01:30:13;;;;;;;3.65;0.70;;;;;;;;;;5035342;28;20034;-68
2021/08/02 01:32:40;;;;;;;9.50;1.02;;;;;;;;;;5033535;28;20017;-69
2021/08/02 01:35:09;;;;;;;7.03;1.15;;;;;;;;;;5051337;28;20013;-70
2021/08/02 01:37:37;;;;;;;6.10;0.93;;;;;;;;;;5055560;28;20472;-68
2021/08/02 01:40:04;;;;;;;7.40;1.33;;;;;;;;;;5064552;28;20370;-68
2021/08/02 01:42:31;;;;;;;16.80;2.05;;;;;;;;;;5055020;28;20179;-69
2021/08/02 01:44:58;;;;;;;7.95;1.10;;;;;;;;;;5069587;28;20476;-69
2021/08/02 01:47:30;;;;;;;5.60;0.93;;;;;;;;;;5060857;28;20041;-69
2021/08/02 01:50:00;;;;;;;5.03;0.73;;;;;;;;;;5065672;28;20021;-70
2021/08/02 01:52:28;;;;;;;4.95;0.90;;;;;;;;;;5056647;28;20477;-69
2021/08/02 01:55:05;;;;;;;5.20;0.60;;;;;;;;;;5052145;28;20040;-70
2021/08/02 01:57:43;;;;;;;7.07;0.90;;;;;;;;;;5058015;28;20029;-70
2021/08/02 02:00:11;;;;;;;4.35;0.70;;;;;;;;;;5038375;28;20026;-70
2021/08/02 02:02:40;;;;;;;6.32;1.00;;;;;;;;;;5039249;28;20029;-69
2021/08/02 02:05:08;;;;;;;5.03;0.90;;;;;;;;;;5039199;28;20486;-69
2021/08/02 02:07:39;;;;;;;7.72;1.30;;;;;;;;;;5042343;28;20151;-69
2021/08/02 02:10:07;;;;;;;4.75;0.82;;;;;;;;;;5045820;28;20124;-69
2021/08/02 02:12:34;;;;;;;6.20;0.80;;;;;;;;;;5049696;28;20078;-69
2021/08/02 02:15:02;;;;;;;3.60;0.93;;;;;;;;;;5036037;28;20033;-69
2021/08/02 02:17:30;;;;;;;5.63;0.90;;;;;;;;;;5039029;28;20030;-71
2021/08/02 02:19:58;;;;;;;5.85;1.05;;;;;;;;;;5040991;28;20083;-71
2021/08/02 02:22:25;;;;;;;4.57;0.90;;;;;;;;;;5044721;28;20029;-71
2021/08/02 02:24:54;;;;;;;7.18;0.73;;;;;;;;;;5040478;28;20021;-70
2021/08/02 02:27:21;;;;;;;7.80;0.88;;;;;;;;;;5045573;28;20021;-70
2021/08/02 02:29:49;;;;;;;3.88;0.88;;;;;;;;;;5049138;28;20493;-71
2021/08/02 02:32:17;;;;;;;5.93;0.80;;;;;;;;;;5051989;28;20032;-70
2021/08/02 02:34:45;;;;;;;7.60;0.95;;;;;;;;;;5046270;28;20446;-71
2021/08/02 02:37:12;;;;;;;5.75;0.98;;;;;;;;;;5051050;28;20041;-69
2021/08/02 02:39:40;;;;;;;6.72;0.85;;;;;;;;;;5049798;28;20028;-70
2021/08/02 02:42:07;;;;;;;4.03;0.63;;;;;;;;;;5049184;28;20545;-71
2021/08/02 02:44:36;;;;;;;7.75;1.20;;;;;;;;;;5047932;28;20052;-70
2021/08/02 02:47:05;;;;;;;9.63;0.98;;;;;;;;;;5063780;28;20757;-70
2021/08/02 02:49:32;;;;;;;9.15;0.82;;;;;;;;;;5042711;28;23361;-70
2021/08/02 02:52:00;;;;;;;5.68;1.42;;;;;;;;;;5038926;28;20116;-71
2021/08/02 02:54:27;;;;;;;6.78;0.70;;;;;;;;;;5046329;28;20065;-70
2021/08/02 02:56:55;;;;;;;5.97;0.70;;;;;;;;;;5044949;28;20052;-70
2021/08/02 02:59:22;;;;;;;7.88;1.42;;;;;;;;;;5042832;28;20021;-71
2021/08/02 03:01:51;;;;;;;12.52;1.30;;;;;;;;;;5044185;28;20028;-70
2021/08/02 03:04:20;;;;;;;8.40;1.75;;;;;;;;;;5049790;28;20135;-73
2021/08/02 03:06:48;;;;;;;10.05;0.90;;;;;;;;;;5052035;28;20512;-69
2021/08/02 03:09:18;;;;;;;7.70;0.70;;;;;;;;;;5045033;28;20436;-70
2021/08/02 03:11:47;;;;;;;5.38;0.98;;;;;;;;;;5037282;28;20040;-70
2021/08/02 03:14:16;;;;;;;6.85;0.77;;;;;;;;;;5054760;28;20606;-70
2021/08/02 03:16:43;;;;;;;4.53;0.98;;;;;;;;;;5052082;28;20034;-70
2021/08/02 03:19:10;;;;;;;5.85;0.90;;;;;;;;;;5042947;28;20059;-70
2021/08/02 03:21:38;;;;;;;5.65;0.90;;;;;;;;;;5037626;28;20029;-69
2021/08/02 03:24:15;;;;;;;7.65;0.70;;;;;;;;;;5040145;28;20064;-70
2021/08/02 03:27:02;;;;;;;8.30;1.20;;;;;;;;;;5041786;28;20071;-70
2021/08/02 03:29:32;;;;;;;6.90;1.00;;;;;;;;;;5044462;28;20056;-71
2021/08/02 03:32:02;;;;;;;5.47;0.90;;;;;;;;;;5038621;28;20030;-72
2021/08/02 03:34:30;;;;;;;5.97;0.98;;;;;;;;;;5057118;28;20033;-71
2021/08/02 03:36:57;;;;;;;5.53;0.70;;;;;;;;;;5037664;28;20120;-71
2021/08/02 03:39:25;;;;;;;6.53;0.82;;;;;;;;;;5047727;28;20120;-70
2021/08/02 03:41:53;;;;;;;7.10;1.05;;;;;;;;;;5033192;28;20030;-69
2021/08/02 03:44:21;;;;;;;5.20;0.75;;;;;;;;;;5043226;28;20805;-69
2021/08/02 03:46:48;;;;;;;8.27;1.20;;;;;;;;;;5046400;28;20033;-69
2021/08/02 03:49:15;;;;;;;8.60;1.20;;;;;;;;;;5042513;28;20025;-71
2021/08/02 03:51:50;;;;;;;6.03;0.85;;;;;;;;;;5037423;28;20398;-70
2021/08/02 03:54:17;;;;;;;9.00;1.50;;;;;;;;;;5034168;28;20200;-69
2021/08/02 03:56:45;;;;;;;8.75;1.00;;;;;;;;;;5034791;28;20030;-69
2021/08/02 03:59:12;;;;;;;5.05;0.75;;;;;;;;;;5036538;28;20022;-69
2021/08/02 04:01:43;;;;;;;9.45;0.75;;;;;;;;;;5035402;28;20025;-70
2021/08/02 04:04:11;;;;;;;10.85;1.23;;;;;;;;;;5054524;28;20051;-70
2021/08/02 04:06:38;;;;;;;5.75;1.20;;;;;;;;;;5050147;28;20170;-71
2021/08/02 04:09:07;;;;;;;8.32;1.00;;;;;;;;;;5041999;28;20094;-68
2021/08/02 04:11:34;;;;;;;8.65;1.55;;;;;;;;;;5046880;28;20386;-70
2021/08/02 04:14:01;;;;;;;7.90;0.90;;;;;;;;;;5044675;28;20033;-69
2021/08/02 04:16:29;;;;;;;6.70;0.88;;;;;;;;;;5034080;28;20028;-70
2021/08/02 04:18:56;;;;;;;8.13;1.70;;;;;;;;;;5047188;28;20029;-70
2021/08/02 04:21:23;;;;;;;8.02;0.73;;;;;;;;;;5047589;28;20104;-70
2021/08/02 04:23:50;;;;;;;9.30;0.90;;;;;;;;;;5036043;28;20021;-69
2021/08/02 04:26:17;;;;;;;5.35;1.25;;;;;;;;;;5042986;28;20024;-70
2021/08/02 04:28:45;;;;;;;5.05;0.98;;;;;;;;;;5039466;28;21184;-70
2021/08/02 04:31:12;;;;;;;7.82;1.48;;;;;;;;;;5045334;28;20061;-72
2021/08/02 04:33:40;;;;;;;5.88;0.88;;;;;;;;;;5034650;28;20025;-71
2021/08/02 04:36:07;;;;;;;9.07;1.17;;;;;;;;;;5046837;28;20052;-72
2021/08/02 04:38:34;;;;;;;8.60;0.85;;;;;;;;;;5042521;28;20057;-71
2021/08/02 04:41:01;;;;;;;8.13;1.30;;;;;;;;;;5036013;28;20028;-70
2021/08/02 04:43:32;;;;;;;8.13;1.35;;;;;;;;;;5049285;28;20049;-71
2021/08/02 04:45:59;;;;;;;6.28;1.23;;;;;;;;;;5051720;28;20492;-70
2021/08/02 04:48:26;;;;;;;7.60;0.82;;;;;;;;;;5047816;28;20039;-70
2021/08/02 04:50:54;;;;;;;8.05;1.70;;;;;;;;;;5033292;28;20087;-70
2021/08/02 04:53:21;;;;;;;7.18;1.60;;;;;;;;;;5037922;28;20099;-71
2021/08/02 04:55:48;;;;;;;8.48;1.20;;;;;;;;;;5043641;28;20029;-71
2021/08/02 04:58:15;;;;;;;9.02;0.90;;;;;;;;;;5036708;28;20044;-70
2021/08/02 05:00:42;;;;;;;11.07;1.15;;;;;;;;;;5033541;28;20037;-70
2021/08/02 05:03:10;;;;;;;7.18;1.23;;;;;;;;;;5057333;28;20543;-72
2021/08/02 05:05:37;;;;;;;11.77;1.50;;;;;;;;;;5055803;28;20024;-69
2021/08/02 05:08:04;;;;;;;5.72;0.82;;;;;;;;;;5044185;28;20017;-70
2021/08/02 05:10:32;;;;;;;7.20;0.77;;;;;;;;;;5045847;28;20036;-70
2021/08/02 05:13:00;;;;;;;10.50;1.23;;;;;;;;;;5038273;28;20025;-70
2021/08/02 05:15:28;;;;;;;8.07;0.80;;;;;;;;;;5053403;28;20037;-70
2021/08/02 05:17:55;;;;;;;9.80;1.75;;;;;;;;;;5054438;28;20111;-70
2021/08/02 05:20:22;;;;;;;8.68;0.98;;;;;;;;;;5050195;28;20184;-70
2021/08/02 05:22:51;;;;;;;6.30;1.33;;;;;;;;;;5064115;28;20025;-70
2021/08/02 05:25:18;;;;;;;7.95;1.30;;;;;;;;;;5032029;28;20112;-70
2021/08/02 05:27:49;;;;;;;9.05;1.10;;;;;;;;;;5046143;28;20049;-70
2021/08/02 05:30:16;;;;;;;8.60;0.98;;;;;;;;;;5069599;28;20036;-70
2021/08/02 05:32:43;;;;;;;11.38;1.35;;;;;;;;;;5068982;28;20476;-70
2021/08/02 05:35:11;;;;;;;8.90;1.13;;;;;;;;;;5055491;28;20033;-69
2021/08/02 05:37:39;;;;;;;7.88;1.35;;;;;;;;;;5058518;28;20045;-69
2021/08/02 05:40:06;;;;;;;6.00;1.10;;;;;;;;;;5080202;28;20040;-69
2021/08/02 05:42:35;;;;;;;10.65;1.00;;;;;;;;;;5043109;28;20076;-70
2021/08/02 05:45:06;;;;;;;9.05;1.40;;;;;;;;;;5036620;28;20032;-69
2021/08/02 05:47:33;;;;;;;9.57;1.75;;;;;;;;;;5044833;28;20025;-70
2021/08/02 05:50:01;;;;;;;10.85;1.00;;;;;;;;;;5031943;28;20068;-70
2021/08/02 05:52:28;;;;;;;8.25;1.33;;;;;;;;;;5031408;28;20043;-70
2021/08/02 05:54:55;;;;;;;10.02;1.38;;;;;;;;;;5031978;28;20027;-70
2021/08/02 05:57:23;;;;;;;11.32;1.65;;;;;;;;;;5031157;28;20046;-70
2021/08/02 05:59:50;;;;;;;8.30;1.73;;;;;;;;;;5040756;28;20052;-70
2021/08/02 06:02:18;;;;;;;4.57;1.02;;;;;;;;;;5047358;28;20021;-69
2021/08/02 06:04:45;;;;;;;9.38;1.75;;;;;;;;;;5035611;28;20091;-70
2021/08/02 06:07:12;;;;;;;9.70;1.42;;;;;;;;;;5039054;28;20033;-69
2021/08/02 06:09:39;;;;;;;8.10;1.15;;;;;;;;;;5036027;28;20501;-70
2021/08/02 06:12:06;;;;;;;9.57;1.23;;;;;;;;;;5034549;28;20080;-70
2021/08/02 06:14:33;;;;;;;9.35;1.42;;;;;;;;;;5036082;28;20052;-70
2021/08/02 06:17:00;;;;;;;6.25;1.35;;;;;;;;;;5033045;28;20482;-70
2021/08/02 06:19:28;;;;;;;7.25;1.27;;;;;;;;;;5052848;28;20033;-70
2021/08/02 06:21:55;;;;;;;7.63;1.13;;;;;;;;;;5047542;28;20029;-70
2021/08/02 06:24:22;;;;;;;7.55;1.00;;;;;;;;;;5047418;28;20082;-70
2021/08/02 06:26:49;;;;;;;7.40;1.15;;;;;;;;;;5050950;28;20100;-68
2021/08/02 06:29:16;;;;;;;11.02;1.77;;;;;;;;;;5040144;28;20029;-69
2021/08/02 06:31:43;;;;;;;13.68;2.90;;;;;;;;;;5051212;28;20091;-69
2021/08/02 06:34:11;;;;;;;10.07;2.28;;;;;;;;;;5044077;28;20053;-68
2021/08/02 06:36:38;;;;;;;11.90;4.95;;;;;;;;;;5042827;28;20064;-69
2021/08/02 06:39:05;;;;;;;10.98;2.13;;;;;;;;;;5042577;28;20033;-69
2021/08/02 06:41:32;;;;;;;12.07;4.35;;;;;;;;;;5051689;28;20371;-69
2021/08/02 06:44:00;;;;;;;17.38;2.92;;;;;;;;;;5046047;28;20017;-70
2021/08/02 06:46:27;;;;;;;13.73;2.15;;;;;;;;;;5044849;28;20033;-70
2021/08/02 06:48:54;;;;;;;8.50;2.08;;;;;;;;;;5043403;28;20078;-70
2021/08/02 06:51:21;;;;;;;11.05;1.80;;;;;;;;;;5042394;28;20041;-69
2021/08/02 06:53:48;;;;;;;7.90;1.27;;;;;;;;;;5039017;28;20518;-70
2021/08/02 06:56:15;;;;;;;8.10;0.85;;;;;;;;;;5038365;28;20078;-70
2021/08/02 06:58:42;;;;;;;6.75;1.35;;;;;;;;;;5041117;28;20021;-70
2021/08/02 07:01:10;;;;;;;9.10;1.27;;;;;;;;;;5037641;28;20497;-70
2021/08/02 07:03:37;;;;;;;19.25;8.75;;;;;;;;;;5036167;28;20033;-71
2021/08/02 07:06:04;;;;;;;14.50;2.75;;;;;;;;;;5056582;28;20091;-70
2021/08/02 07:08:31;;;;;;;10.35;2.17;;;;;;;;;;5047273;28;20417;-70
2021/08/02 07:10:58;;;;;;;7.43;1.55;;;;;;;;;;5035939;28;20093;-70
2021/08/02 07:13:25;;;;;;;10.18;1.40;;;;;;;;;;5045045;28;20025;-70
2021/08/02 07:15:53;;;;;;;9.43;2.08;;;;;;;;;;5042302;28;20045;-70
2021/08/02 07:18:22;;;;;;;12.07;2.25;;;;;;;;;;5035175;28;20031;-70
2021/08/02 07:20:50;;;;;;;8.73;0.82;;;;;;;;;;5044443;28;20029;-70
2021/08/02 07:23:17;;;;;;;9.32;1.35;;;;;;;;;;5037175;28;20545;-70
2021/08/02 07:25:45;;;;;;;10.48;1.75;;;;;;;;;;5041846;28;20524;-70
2021/08/02 07:28:12;;;;;;;10.45;1.40;;;;;;;;;;5043141;28;20098;-71
2021/08/02 07:30:39;;;;;;;11.13;1.20;;;;;;;;;;5035449;28;20112;-71
2021/08/02 07:33:07;;;;;;;6.03;1.02;;;;;;;;;;5036356;28;20354;-70
2021/08/02 07:35:34;;;;;;;8.05;1.58;;;;;;;;;;5043201;28;20025;-70
2021/08/02 07:38:01;;;;;;;7.95;1.00;;;;;;;;;;5041049;28;20728;-70
2021/08/02 07:40:28;;;;;;;11.63;1.15;;;;;;;;;;5045731;28;20045;-70
2021/08/02 07:42:55;;;;;;;4.32;0.65;;;;;;;;;;5044565;28;20033;-69
2021/08/02 07:45:22;;;;;;;12.20;2.08;;;;;;;;;;5040647;28;20034;-68
2021/08/02 07:47:49;;;;;;;8.32;1.15;;;;;;;;;;5042005;28;20022;-70
2021/08/02 07:50:17;;;;;;;7.18;1.52;;;;;;;;;;5043514;28;20038;-70
2021/08/02 07:52:44;;;;;;;14.30;2.10;;;;;;;;;;5045911;28;20025;-71
2021/08/02 07:55:15;;;;;;;8.07;1.05;;;;;;;;;;5040900;28;20041;-70
2021/08/02 07:57:42;;;;;;;8.13;1.20;;;;;;;;;;5037959;28;20029;-70
2021/08/02 08:00:11;;;;;;;7.32;1.00;;;;;;;;;;5038394;28;20021;-71
2021/08/02 08:02:38;;;;;;;7.07;1.02;;;;;;;;;;5040535;28;20044;-70
2021/08/02 08:05:06;;;;;;;5.82;1.33;;;;;;;;;;5038385;28;20128;-70
2021/08/02 08:07:46;;;;;;;9.77;1.10;;;;;;;;;;5040099;28;20029;-71
2021/08/02 08:10:13;;;;;;;7.38;1.00;;;;;;;;;;5036779;28;20100;-69
2021/08/02 08:12:41;;;;;;;5.30;1.00;;;;;;;;;;5040013;28;20032;-69
2021/08/02 08:15:09;;;;;;;6.53;1.60;;;;;;;;;;5036682;28;20029;-68
2021/08/02 08:17:36;;;;;;;8.35;1.52;;;;;;;;;;5038144;28;20048;-68
2021/08/02 08:20:04;;;;;;;8.00;1.75;;;;;;;;;;5039825;28;20076;-68
2021/08/02 08:22:31;;;;;;;6.10;1.05;;;;;;;;;;5041511;28;20488;-68
2021/08/02 08:24:58;;;;;;;6.97;0.90;;;;;;;;;;5038990;28;20052;-68
2021/08/02 08:27:26;;;;;;;9.05;1.15;;;;;;;;;;5038918;28;20025;-69
2021/08/02 08:29:53;;;;;;;12.70;2.00;;;;;;;;;;5035840;28;20056;-68
2021/08/02 08:32:20;;;;;;;9.30;1.10;;;;;;;;;;5039964;28;20086;-68
2021/08/02 08:34:47;;;;;;;11.13;1.60;;;;;;;;;;5038623;28;20029;-69
2021/08/02 08:37:14;;;;;;;14.30;1.65;;;;;;;;;;5035785;28;20083;-68
2021/08/02 08:39:41;;;;;;;10.00;1.23;;;;;;;;;;5038566;28;20445;-68
2021/08/02 08:42:08;;;;;;;15.02;2.35;;;;;;;;;;5037329;28;20151;-69
2021/08/02 08:44:36;;;;;;;7.72;1.42;;;;;;;;;;5047750;28;20120;-68
2021/08/02 08:47:03;;;;;;;11.93;1.70;;;;;;;;;;5045462;28;20045;-70
2021/08/02 08:49:30;;;;;;;12.77;1.27;;;;;;;;;;5039136;28;20032;-69
2021/08/02 08:51:57;;;;;;;4.82;1.33;;;;;;;;;;5032128;28;20036;-69
2021/08/02 08:54:24;;;;;;;10.18;1.98;;;;;;;;;;5032867;28;20021;-69
2021/08/02 08:56:52;;;;;;;13.90;1.73;;;;;;;;;;5047070;28;20034;-69
2021/08/02 08:59:20;;;;;;;16.02;2.08;;;;;;;;;;5039905;28;20048;-69
2021/08/02 09:01:47;;;;;;;13.60;1.45;;;;;;;;;;5032817;28;20229;-69
2021/08/02 09:04:14;;;;;;;12.30;1.80;;;;;;;;;;5034399;28;20115;-69
2021/08/02 09:06:48;;;;;;;20.65;2.75;;;;;;;;;;5031383;28;20019;-70
2021/08/02 09:09:25;;;;;;;13.65;2.25;;;;;;;;;;5031814;28;20029;-70
2021/08/02 09:12:03;;;;;;;11.93;1.98;;;;;;;;;;5038406;28;20033;-70
2021/08/02 09:14:30;;;;;;;11.50;2.33;;;;;;;;;;5039305;28;20017;-69
2021/08/02 09:17:00;;;;;;;11.55;1.92;;;;;;;;;;5053301;28;20519;-70
2021/08/02 09:19:48;;;;;;;10.57;2.50;;;;;;;;;;5036235;28;20770;-70
2021/08/02 09:22:25;;;;;;;13.50;2.65;;;;;;;;;;5038859;28;20029;-69
2021/08/02 09:25:03;;;;;;;14.55;1.92;;;;;;;;;;5037365;28;21212;-70
2021/08/02 09:27:33;;;;;;;11.02;1.38;;;;;;;;;;5039238;28;20029;-70
2021/08/02 09:30:00;;;;;;;13.18;2.22;;;;;;;;;;5041161;28;20048;-69
2021/08/02 09:32:27;;;;;;;11.52;2.17;;;;;;;;;;5038177;28;20075;-69
2021/08/02 09:34:55;;;;;;;15.93;2.80;;;;;;;;;;5037663;28;20025;-70
2021/08/02 09:37:25;;;;;;;10.80;1.40;;;;;;;;;;5037656;28;20048;-69
2021/08/02 09:39:53;;;;;;;9.77;1.38;;;;;;;;;;5038162;28;20043;-69
2021/08/02 09:42:26;;;;;;;7.82;1.10;;;;;;;;;;5039927;28;20040;-69
2021/08/02 09:45:03;;;;;;;16.17;1.67;;;;;;;;;;5039022;28;20026;-69
2021/08/02 09:47:31;;;;;;;7.88;1.42;;;;;;;;;;5040195;28;20025;-70
2021/08/02 09:49:58;;;;;;;10.35;1.70;;;;;;;;;;5041248;28;20017;-69
2021/08/02 09:52:25;;;;;;;17.27;1.80;;;;;;;;;;5039018;28;20512;-69
2021/08/02 09:55:02;;;;;;;10.48;1.20;;;;;;;;;;5041220;28;20021;-69
2021/08/02 09:57:30;;;;;;;13.75;1.83;;;;;;;;;;5045206;28;20112;-69
2021/08/02 09:59:58;;;;;;;11.18;1.45;;;;;;;;;;5048085;28;20035;-69
2021/08/02 10:02:26;;;;;;;11.40;2.05;;;;;;;;;;5044985;28;20068;-70
2021/08/02 10:04:53;;;;;;;6.97;1.50;;;;;;;;;;5046501;28;20029;-69
2021/08/02 10:07:20;;;;;;;11.70;1.60;;;;;;;;;;5042751;28;20378;-69
2021/08/02 10:09:48;;;;;;;16.17;2.45;;;;;;;;;;5042549;28;20029;-69
2021/08/02 10:12:16;;;;;;;10.70;2.22;;;;;;;;;;5043232;28;20460;-69
2021/08/02 10:14:44;;;;;;;19.15;1.92;;;;;;;;;;5039868;28;20044;-69
2021/08/02 10:17:11;;;;;;;12.75;1.63;;;;;;;;;;5041826;28;20035;-69
2021/08/02 10:19:40;;;;;;;9.15;2.20;;;;;;;;;;5040561;28;20033;-69
2021/08/02 10:22:07;;;;;;;17.05;1.73;;;;;;;;;;5045147;28;20114;-69
2021/08/02 10:24:46;;;;;;;13.75;1.73;;;;;;;;;;5044149;28;20029;-69
2021/08/02 10:27:13;;;;;;;24.27;3.25;;;;;;;;;;5040211;28;20053;-69
2021/08/02 10:29:44;;;;;;;11.98;2.38;;;;;;;;;;5054752;28;20068;-69
2021/08/02 10:32:24;;;;;;;11.65;2.53;;;;;;;;;;5040771;28;20112;-69
2021/08/02 10:34:52;;;;;;;9.93;1.80;;;;;;;;;;5040631;28;20383;-69
2021/08/02 10:37:45;;;;;;;12.27;1.77;;;;;;;;;;5035306;28;20098;-69
2021/08/02 10:40:12;;;;;;;13.80;2.45;;;;;;;;;;5037625;28;20049;-69
2021/08/02 10:42:46;;;;;;;14.73;2.63;;;;;;;;;;5039300;28;20390;-69
2021/08/02 10:45:13;;;;;;;12.60;2.28;;;;;;;;;;5040989;28;20104;-68
2021/08/02 10:47:44;;;;;;;12.05;1.42;;;;;;;;;;5041637;28;20029;-69
2021/08/02 10:50:11;;;;;;;14.00;1.60;;;;;;;;;;5043609;28;20028;-69
2021/08/02 10:52:39;;;;;;;12.77;2.20;;;;;;;;;;5038384;28;20028;-69
2021/08/02 10:55:16;;;;;;;16.00;2.28;;;;;;;;;;5041157;28;20112;-69
2021/08/02 10:57:43;;;;;;;14.70;2.17;;;;;;;;;;5040798;28;20025;-70
2021/08/02 11:00:20;;;;;;;19.15;2.85;;;;;;;;;;5041276;28;20082;-70
2021/08/02 11:02:54;;;;;;;13.63;1.73;;;;;;;;;;5039656;28;20032;-69
2021/08/02 11:05:22;;;;;;;14.13;2.70;;;;;;;;;;5041809;28;20031;-69
2021/08/02 11:07:49;;;;;;;11.77;1.95;;;;;;;;;;5039719;28;20100;-69
2021/08/02 11:10:17;;;;;;;12.55;2.75;;;;;;;;;;5041770;28;20061;-69
2021/08/02 11:12:45;;;;;;;13.20;2.75;;;;;;;;;;5035959;28;20025;-69
2021/08/02 11:15:12;;;;;;;17.70;3.08;;;;;;;;;;5039714;28;20028;-69
2021/08/02 11:17:41;;;;;;;13.85;1.65;;;;;;;;;;5039880;28;20040;-69
2021/08/02 11:20:11;;;;;;;10.93;2.08;;;;;;;;;;5043390;28;20032;-69
2021/08/02 11:22:49;;;;;;;16.67;2.42;;;;;;;;;;5041465;28;20565;-69
2021/08/02 11:25:37;;;;;;;10.38;2.53;;;;;;;;;;5052071;28;20108;-69
2021/08/02 11:28:05;;;;;;;19.05;2.65;;;;;;;;;;5049402;28;20366;-69
2021/08/02 11:30:32;;;;;;;24.50;2.72;;;;;;;;;;5043487;28;20057;-69
2021/08/02 11:32:59;;;;;;;15.38;1.95;;;;;;;;;;5042112;28;20025;-69
2021/08/02 11:35:33;;;;;;;17.92;1.48;;;;;;;;;;5039657;28;20033;-70
2021/08/02 11:38:00;;;;;;;;;;;;;;;;;;5042460;28;20456;-69
2021/08/02 11:40:33;;;;;;;17.25;2.85;;;;;;;;;;5040777;28;20323;-69
2021/08/02 11:43:05;;;;;;;16.77;2.53;;;;;;;;;;5053968;28;20035;-69
2021/08/02 11:45:32;;;;;;;19.13;2.45;;;;;;;;;;5051953;28;20370;-69
2021/08/02 11:48:02;;;;;;;16.70;2.55;;;;;;;;;;5051254;28;20045;-68
2021/08/02 11:50:32;;;;;;;11.77;1.50;;;;;;;;;;5052180;28;20028;-69
2021/08/02 11:53:03;;;;;;;14.57;2.78;;;;;;;;;;5053903;28;20074;-70
2021/08/02 11:55:30;;;;;;;18.48;2.40;;;;;;;;;;5057977;28;20037;-68
2021/08/02 11:57:58;;;;;;;13.07;2.63;;;;;;;;;;5051348;28;20052;-69
2021/08/02 12:00:26;;;;;;;17.02;2.03;;;;;;;;;;5055803;28;20029;-70
2021/08/02 12:02:53;;;;;;;9.35;2.42;;;;;;;;;;5051104;28;20029;-68
2021/08/02 12:05:25;;;;;;;13.50;1.88;;;;;;;;;;5065622;28;20382;-70
2021/08/02 12:07:52;;;;;;;18.45;2.92;;;;;;;;;;5048433;28;20017;-70
2021/08/02 12:10:21;;;;;;;20.48;2.80;;;;;;;;;;5051732;28;20052;-69
2021/08/02 12:12:57;;;;;;;8.77;2.53;;;;;;;;;;5053355;28;20104;-69
2021/08/02 12:15:25;;;;;;;13.05;1.98;;;;;;;;;;5050781;28;20021;-69
2021/08/02 12:17:53;;;;;;;17.15;2.15;;;;;;;;;;5050429;28;20043;-70
2021/08/02 12:20:31;;;;;;;14.82;2.00;;;;;;;;;;5045284;28;20033;-70
2021/08/02 12:22:58;;;;;;;15.65;2.50;;;;;;;;;;5049065;28;20171;-70
2021/08/02 12:25:34;;;;;;;14.90;3.28;;;;;;;;;;5051743;28;20032;-69
2021/08/02 12:28:02;;;;;;;17.40;2.03;;;;;;;;;;5052351;28;20068;-70
2021/08/02 12:30:29;;;;;;;15.18;2.17;;;;;;;;;;5054940;28;20686;-70
2021/08/02 12:32:56;;;;;;;17.00;2.63;;;;;;;;;;5052430;28;20134;-69
2021/08/02 12:35:25;;;;;;;17.10;2.75;;;;;;;;;;5052238;28;20083;-70
2021/08/02 12:37:52;;;;;;;12.63;2.15;;;;;;;;;;5051138;28;20021;-68
2021/08/02 12:40:19;;;;;;;19.60;3.33;;;;;;;;;;5053814;28;20051;-68
2021/08/02 12:42:48;;;;;;;16.73;2.50;;;;;;;;;;5049851;28;20029;-68
2021/08/02 12:45:16;;;;;;;12.65;2.30;;;;;;;;;;5049790;28;20033;-69
2021/08/02 12:47:43;;;;;;;15.15;2.72;;;;;;;;;;5051013;28;20200;-69
2021/08/02 12:50:11;;;;;;;27.45;3.10;;;;;;;;;;5050535;28;20029;-69
2021/08/02 12:52:39;;;;;;;16.15;2.30;;;;;;;;;;5053115;28;20513;-69
2021/08/02 12:55:07;;;;;;;22.08;4.00;;;;;;;;;;5053988;28;20557;-68
2021/08/02 12:57:38;;;;;;;24.70;3.55;;;;;;;;;;5048923;28;20598;-69
2021/08/02 13:00:06;;;;;;;16.90;2.63;;;;;;;;;;5049927;28;20037;-69
2021/08/02 13:02:33;;;;;;;22.35;2.95;;;;;;;;;;5048515;28;20017;-70
2021/08/02 13:05:00;;;;;;;16.20;2.72;;;;;;;;;;5050662;28;20437;-69
2021/08/02 13:07:28;;;;;;;16.17;2.78;;;;;;;;;;5055004;28;20154;-69
2021/08/02 13:09:56;;;;;;;21.55;2.85;;;;;;;;;;5050039;28;20027;-70
2021/08/02 13:12:23;;;;;;;23.65;3.53;;;;;;;;;;5049673;28;20056;-70
2021/08/02 13:14:51;;;;;;;25.63;3.33;;;;;;;;;;5048988;28;20057;-69
2021/08/02 13:17:18;;;;;;;21.80;3.25;;;;;;;;;;5050243;28;20029;-70
2021/08/02 13:19:46;;;;;;;20.65;3.30;;;;;;;;;;5051361;28;20041;-70
2021/08/02 13:22:16;;;;;;;25.50;3.72;;;;;;;;;;5049235;28;20538;-70
2021/08/02 13:27:29;;;;;;;22.40;3.33;;;;;;;;;;5051504;28;20043;-69
2021/08/02 13:29:56;;;;;;;25.20;3.75;;;;;;;;;;5051396;28;20033;-70
2021/08/02 13:32:23;;;;;;;17.48;2.35;;;;;;;;;;5064242;28;20048;-70
2021/08/02 13:34:50;;;;;;;21.80;4.68;;;;;;;;;;5050729;28;20036;-70
2021/08/02 13:37:17;;;;;;;25.98;3.55;;;;;;;;;;5051082;28;20118;-70
2021/08/02 13:39:45;;;;;;;14.32;2.28;;;;;;;;;;5050124;28;20103;-70
2021/08/02 13:42:12;;;;;;;20.83;3.67;;;;;;;;;;5051049;28;20033;-70
2021/08/02 13:44:39;;;;;;;25.85;3.92;;;;;;;;;;5053874;28;20071;-71
2021/08/02 13:47:07;;;;;;;24.50;3.40;;;;;;;;;;5048837;28;20028;-70
2021/08/02 13:49:37;;;;;;;17.77;2.88;;;;;;;;;;5051910;28;20039;-69
2021/08/02 13:52:05;;;;;;;23.60;3.60;;;;;;;;;;5049591;28;20029;-70
2021/08/02 13:54:32;;;;;;;17.10;3.10;;;;;;;;;;5051456;28;20033;-71
2021/08/02 13:56:59;;;;;;;18.13;2.97;;;;;;;;;;5043419;28;20021;-70
2021/08/02 13:59:26;;;;;;;22.35;2.70;;;;;;;;;;5048084;28;20068;-69
2021/08/02 14:01:53;;;;;;;22.40;2.58;;;;;;;;;;5047169;28;20031;-70
2021/08/02 14:04:20;;;;;;;17.20;2.60;;;;;;;;;;5048487;28;20040;-70
2021/08/02 14:06:48;;;;;;;23.48;3.22;;;;;;;;;;5049030;28;20049;-70
2021/08/02 14:09:15;;;;;;;15.90;2.38;;;;;;;;;;5048000;28;20017;-70
2021/08/02 14:11:48;;;;;;;18.95;3.35;;;;;;;;;;5047806;28;20120;-70
2021/08/02 14:14:15;;;;;;;12.45;2.47;;;;;;;;;;5052378;28;20122;-70
2021/08/02 14:16:49;;;;;;;10.80;1.95;;;;;;;;;;5051793;28;20071;-70
2021/08/02 14:19:16;;;;;;;12.13;2.40;;;;;;;;;;5052946;28;20037;-71
2021/08/02 14:21:46;;;;;;;11.38;2.47;;;;;;;;;;5053732;28;20029;-70
2021/08/02 14:24:13;;;;;;;15.45;3.05;;;;;;;;;;5051592;28;20017;-70
2021/08/02 14:26:41;;;;;;;16.75;2.65;;;;;;;;;;5053081;28;20028;-70
2021/08/02 14:29:10;;;;;;;18.98;2.72;;;;;;;;;;5052650;28;20103;-70
2021/08/02 14:31:39;;;;;;;11.70;2.58;;;;;;;;;;5052435;28;20501;-70
2021/08/02 14:34:06;;;;;;;19.08;3.17;;;;;;;;;;5050328;28;20048;-71
2021/08/02 14:36:33;;;;;;;13.93;2.63;;;;;;;;;;5049633;28;20041;-70
2021/08/02 14:39:02;;;;;;;14.05;2.95;;;;;;;;;;5051572;28;20028;-70
2021/08/02 14:41:33;;;;;;;15.52;2.40;;;;;;;;;;5056272;28;20029;-70
2021/08/02 14:44:01;;;;;;;21.65;3.70;;;;;;;;;;5053382;28;20045;-70
2021/08/02 14:46:29;;;;;;;16.60;3.17;;;;;;;;;;5054183;28;20036;-70